createdAt,value
2017-06-11T00:00:27.833Z,77.95
2017-06-11T00:01:08.323Z,77.58
2017-06-11T00:01:48.813Z,78.05
2017-06-11T00:02:29.306Z,78.05
2017-06-11T00:03:09.805Z,78.63
2017-06-11T00:03:50.299Z,78.44
2017-06-11T00:04:30.828Z,78.53
2017-06-11T00:05:11.327Z,78.72
2017-06-11T00:05:51.815Z,78.82
2017-06-11T00:06:32.300Z,79.01
2017-06-11T00:07:12.795Z,78.72
2017-06-11T00:07:53.293Z,79.01
2017-06-11T00:08:33.781Z,78.92
2017-06-11T00:09:14.281Z,79.49
2017-06-11T00:09:54.780Z,79.11
2017-06-11T00:10:35.277Z,79.21
2017-06-11T00:11:15.776Z,79.39
2017-06-11T00:11:56.270Z,78.82
2017-06-11T00:12:36.751Z,79.39
2017-06-11T00:13:17.241Z,78.92
2017-06-11T00:13:57.728Z,78.53
2017-06-11T00:14:38.227Z,78.92
2017-06-11T00:15:18.711Z,78.53
2017-06-11T00:15:59.203Z,78.72
2017-06-11T00:16:39.700Z,78.34
2017-06-11T00:17:20.199Z,78.72
2017-06-11T00:18:00.698Z,78.34
2017-06-11T00:18:41.194Z,78.34
2017-06-11T00:19:21.690Z,77.95
2017-06-11T00:21:14.240Z,78.92
2017-06-11T00:21:54.728Z,79.01
2017-06-11T00:22:35.215Z,78.25
2017-06-11T00:23:15.711Z,78.44
2017-06-11T00:23:56.211Z,78.44
2017-06-11T00:24:36.703Z,78.05
2017-06-11T00:25:17.195Z,78.63
2017-06-11T00:25:57.678Z,78.25
2017-06-11T00:26:38.167Z,78.72
2017-06-11T00:27:18.663Z,78.05
2017-06-11T00:27:59.142Z,78.44
2017-06-11T00:28:39.641Z,78.63
2017-06-11T00:29:20.135Z,78.82
2017-06-11T00:30:00.631Z,78.34
2017-06-11T00:30:41.121Z,78.44
2017-06-11T00:31:21.619Z,77.95
2017-06-11T00:32:02.112Z,78.05
2017-06-11T00:32:42.613Z,78.15
2017-06-11T00:33:23.095Z,77.71
2017-06-11T00:34:03.597Z,77.76
2017-06-11T00:34:44.081Z,77.48
2017-06-11T00:35:25.215Z,77.67
2017-06-11T00:36:05.708Z,78.05
2017-06-11T00:36:46.956Z,77.76
2017-06-11T00:37:27.477Z,77.09
2017-06-11T00:38:07.959Z,77.42
2017-06-11T00:38:48.438Z,77.29
2017-06-11T00:39:28.897Z,76.71
2017-06-11T00:40:09.376Z,77
2017-06-11T00:40:49.842Z,76.81
2017-06-11T00:41:30.322Z,76.65
2017-06-11T00:42:10.778Z,76.65
2017-06-11T00:44:03.345Z,77.09
2017-06-11T00:44:43.828Z,76.94
2017-06-11T00:45:24.296Z,76.56
2017-06-11T00:46:04.775Z,76.23
2017-06-11T00:46:45.218Z,77
2017-06-11T00:47:25.665Z,77.09
2017-06-11T00:48:06.125Z,76.23
2017-06-11T00:48:46.593Z,76.65
2017-06-11T00:49:27.064Z,76.71
2017-06-11T00:50:07.537Z,77.09
2017-06-11T00:50:48.033Z,76.27
2017-06-11T00:51:28.439Z,76.23
2017-06-11T00:52:08.893Z,76.71
2017-06-11T00:52:49.385Z,77.48
2017-06-11T00:53:29.860Z,76.94
2017-06-11T00:54:10.315Z,76.32
2017-06-11T00:54:50.767Z,76.42
2017-06-11T00:55:31.228Z,76.62
2017-06-11T00:56:11.648Z,77.29
2017-06-11T00:56:52.072Z,77.09
2017-06-11T00:57:32.603Z,77.19
2017-06-11T00:58:12.996Z,77.09
2017-06-11T00:58:53.437Z,77
2017-06-11T01:00:51.059Z,77.76
2017-06-11T01:01:31.540Z,77.48
2017-06-11T01:02:12.049Z,77.76
2017-06-11T01:02:52.527Z,77.95
2017-06-11T01:03:33.020Z,77.67
2017-06-11T01:04:13.518Z,77.38
2017-06-11T01:04:53.996Z,77.51
2017-06-11T01:05:34.499Z,76.9
2017-06-11T01:06:14.978Z,77.38
2017-06-11T01:06:55.471Z,77.76
2017-06-11T01:07:35.956Z,77.38
2017-06-11T01:08:16.476Z,77.09
2017-06-11T01:08:56.923Z,77.09
2017-06-11T01:09:37.411Z,77.09
2017-06-11T01:10:17.912Z,77.29
2017-06-11T01:10:58.423Z,76.9
2017-06-11T01:11:38.926Z,77.09
2017-06-11T01:12:19.452Z,77.76
2017-06-11T01:12:59.900Z,77.09
2017-06-11T01:13:40.383Z,77
2017-06-11T01:14:20.873Z,76.9
2017-06-11T01:15:01.358Z,76.81
2017-06-11T01:15:41.847Z,77
2017-06-11T01:16:22.337Z,77
2017-06-11T01:17:02.842Z,77.29
2017-06-11T01:17:43.297Z,77.09
2017-06-11T01:18:23.778Z,77.58
2017-06-11T01:19:04.280Z,77.86
2017-06-11T01:19:44.768Z,77.76
2017-06-11T01:20:25.256Z,77.09
2017-06-11T01:21:05.746Z,77.48
2017-06-11T01:21:46.238Z,77.58
2017-06-11T01:22:26.730Z,77.58
2017-06-11T01:23:07.219Z,77.76
2017-06-11T01:23:47.721Z,77.76
2017-06-11T01:24:28.230Z,77.76
2017-06-11T01:25:08.701Z,77.48
2017-06-11T01:25:49.201Z,78.15
2017-06-11T01:26:29.682Z,78.05
2017-06-11T01:27:10.185Z,78.02
2017-06-11T01:27:50.677Z,78.44
2017-06-11T01:28:31.158Z,78.15
2017-06-11T01:29:11.650Z,78.59
2017-06-11T01:29:52.147Z,78.63
2017-06-11T01:30:32.659Z,78.4
2017-06-11T01:31:13.147Z,78.3
2017-06-11T01:31:54.553Z,78.59
2017-06-11T01:32:35.039Z,78.63
2017-06-11T01:33:15.527Z,78.72
2017-06-11T01:33:56.032Z,78.78
2017-06-11T01:34:36.505Z,78.3
2017-06-11T01:35:17.003Z,78.53
2017-06-11T01:35:57.491Z,78.53
2017-06-11T01:36:37.982Z,78.88
2017-06-11T01:37:18.517Z,79.16
2017-06-11T01:37:58.985Z,78.78
2017-06-11T01:38:39.473Z,78.88
2017-06-11T01:39:19.960Z,79.36
2017-06-11T01:40:00.458Z,79.07
2017-06-11T01:40:40.945Z,79.26
2017-06-11T01:41:21.442Z,78.88
2017-06-11T01:42:01.939Z,79.16
2017-06-11T01:42:42.422Z,78.88
2017-06-11T01:43:22.903Z,78.88
2017-06-11T01:44:03.424Z,79.36
2017-06-11T01:44:43.910Z,79.07
2017-06-11T01:45:24.399Z,79.26
2017-06-11T01:46:04.891Z,79.83
2017-06-11T01:46:45.377Z,79.74
2017-06-11T01:47:25.871Z,79.36
2017-06-11T01:48:06.389Z,79.64
2017-06-11T01:48:46.884Z,79.55
2017-06-11T01:49:27.392Z,79.93
2017-06-11T01:50:07.864Z,79.45
2017-06-11T01:50:48.361Z,79.64
2017-06-11T01:51:28.844Z,79.36
2017-06-11T01:52:09.324Z,79.93
2017-06-11T01:52:49.811Z,79.45
2017-06-11T01:55:07.655Z,80.03
2017-06-11T01:55:48.122Z,80.22
2017-06-11T01:56:28.626Z,80.6
2017-06-11T01:57:09.115Z,80.08
2017-06-11T01:57:49.605Z,80.66
2017-06-11T01:58:30.064Z,80.66
2017-06-11T01:59:10.636Z,80.47
2017-06-11T01:59:51.121Z,81.13
2017-06-11T02:00:31.624Z,81.33
2017-06-11T02:01:12.112Z,81.33
2017-06-11T02:01:52.575Z,80.56
2017-06-11T02:02:33.056Z,80.47
2017-06-11T02:03:13.520Z,81.04
2017-06-11T02:03:53.971Z,81.43
2017-06-11T02:06:11.783Z,81.23
2017-06-11T02:06:52.254Z,81.33
2017-06-11T02:07:32.724Z,81.04
2017-06-11T02:08:13.192Z,81.04
2017-06-11T02:08:53.687Z,81.04
2017-06-11T02:09:34.161Z,81.23
2017-06-11T02:10:14.661Z,81.13
2017-06-11T02:10:55.143Z,81.13
2017-06-11T02:11:35.617Z,81.33
2017-06-11T02:12:16.096Z,81.71
2017-06-11T02:12:56.584Z,81.9
2017-06-11T02:13:37.055Z,81.81
2017-06-11T02:14:17.518Z,81.9
2017-06-11T02:14:57.984Z,81.71
2017-06-11T02:15:38.435Z,81.62
2017-06-11T02:17:56.252Z,81.9
2017-06-11T02:18:36.732Z,81.71
2017-06-11T02:19:17.223Z,82.19
2017-06-11T02:21:14.829Z,82.09
2017-06-11T02:21:55.312Z,82.19
2017-06-11T02:22:35.792Z,82.19
2017-06-11T02:23:16.269Z,82.38
2017-06-11T02:23:56.759Z,82.19
2017-06-11T02:24:37.254Z,81.9
2017-06-11T02:25:17.738Z,81.9
2017-06-11T02:25:58.219Z,82.38
2017-06-11T02:26:38.714Z,82.48
2017-06-11T02:27:19.204Z,81.81
2017-06-11T02:27:59.674Z,82.09
2017-06-11T02:28:40.166Z,82.43
2017-06-11T02:29:21.149Z,82.48
2017-06-11T02:30:01.637Z,82.48
2017-06-11T02:30:42.126Z,81.9
2017-06-11T02:31:22.620Z,82.29
2017-06-11T02:32:04.059Z,82.67
2017-06-11T02:32:44.559Z,82.67
2017-06-11T02:33:25.058Z,82.38
2017-06-11T02:34:05.559Z,82.67
2017-06-11T02:34:46.030Z,82.67
2017-06-11T02:35:26.515Z,82.09
2017-06-11T02:36:06.999Z,82.57
2017-06-11T02:36:47.498Z,82.57
2017-06-11T02:37:28.026Z,82.76
2017-06-11T02:38:08.447Z,82.86
2017-06-11T02:38:48.998Z,82.48
2017-06-11T02:39:29.426Z,82.48
2017-06-11T02:40:09.920Z,82.57
2017-06-11T02:40:50.404Z,82
2017-06-11T02:41:30.886Z,82.48
2017-06-11T02:42:11.376Z,82
2017-06-11T02:42:51.852Z,81.81
2017-06-11T02:43:32.341Z,82.09
2017-06-11T02:44:12.854Z,82.29
2017-06-11T02:44:53.324Z,82.29
2017-06-11T02:45:33.819Z,82.19
2017-06-11T02:46:14.305Z,81.71
2017-06-11T02:46:54.783Z,82.67
2017-06-11T02:47:35.263Z,82.57
2017-06-11T02:48:15.738Z,82.24
2017-06-11T02:48:56.233Z,82.53
2017-06-11T02:49:36.730Z,82.48
2017-06-11T02:50:17.228Z,82.19
2017-06-11T02:50:57.719Z,82.57
2017-06-11T02:51:38.214Z,82.57
2017-06-11T02:52:18.708Z,82.06
2017-06-11T02:52:59.196Z,82.63
2017-06-11T02:53:39.686Z,82.53
2017-06-11T02:54:20.178Z,82.63
2017-06-11T02:55:00.660Z,82.48
2017-06-11T02:55:41.136Z,82.48
2017-06-11T02:56:21.632Z,82.57
2017-06-11T02:57:02.097Z,81.62
2017-06-11T02:57:42.587Z,82
2017-06-11T02:58:23.068Z,81.43
2017-06-11T02:59:03.625Z,81.33
2017-06-11T02:59:44.118Z,81.13
2017-06-11T03:00:24.614Z,81.23
2017-06-11T03:01:05.118Z,81.23
2017-06-11T03:01:45.595Z,81.52
2017-06-11T03:02:26.100Z,81.71
2017-06-11T03:03:06.588Z,81.9
2017-06-11T03:03:47.074Z,81.57
2017-06-11T03:04:27.567Z,82.15
2017-06-11T03:05:08.059Z,82.06
2017-06-11T03:05:48.550Z,82.24
2017-06-11T03:06:29.046Z,82.92
2017-06-11T03:07:09.535Z,82.43
2017-06-11T03:07:50.013Z,82.82
2017-06-11T03:08:30.489Z,83.01
2017-06-11T03:09:10.973Z,83.49
2017-06-11T03:09:51.443Z,82.82
2017-06-11T03:10:31.940Z,83.49
2017-06-11T03:11:12.423Z,82.63
2017-06-11T03:11:52.923Z,82.82
2017-06-11T03:12:33.411Z,83.11
2017-06-11T03:13:13.908Z,83.49
2017-06-11T03:13:54.393Z,83.3
2017-06-11T03:14:34.884Z,83.2
2017-06-11T03:15:15.381Z,82.63
2017-06-11T03:15:55.873Z,83.2
2017-06-11T03:16:36.363Z,82.53
2017-06-11T03:17:16.852Z,83.49
2017-06-11T03:17:57.354Z,83.3
2017-06-11T03:18:37.847Z,83.11
2017-06-11T03:19:18.339Z,83.01
2017-06-11T03:19:58.830Z,83.01
2017-06-11T03:20:39.318Z,83.2
2017-06-11T03:21:19.803Z,83.3
2017-06-11T03:22:00.303Z,83.49
2017-06-11T03:22:40.794Z,83.01
2017-06-11T03:23:21.284Z,83.11
2017-06-11T03:24:01.776Z,83.3
2017-06-11T03:24:42.270Z,83.11
2017-06-11T03:25:22.765Z,83.3
2017-06-11T03:26:03.267Z,82.92
2017-06-11T03:27:55.809Z,83.2
2017-06-11T03:28:36.310Z,83.3
2017-06-11T03:29:16.761Z,82.63
2017-06-11T03:29:57.225Z,83.3
2017-06-11T03:30:37.698Z,83.39
2017-06-11T03:31:18.175Z,83.39
2017-06-11T03:31:58.666Z,83.97
2017-06-11T03:32:39.157Z,83.68
2017-06-11T03:33:19.612Z,84.06
2017-06-11T03:34:00.084Z,83.68
2017-06-11T03:34:40.557Z,83.3
2017-06-11T03:35:21.049Z,83.2
2017-06-11T03:36:01.463Z,83.49
2017-06-11T03:36:41.920Z,83.2
2017-06-11T03:37:22.341Z,83.3
2017-06-11T03:38:02.790Z,83.2
2017-06-11T03:38:43.254Z,83.3
2017-06-11T03:39:23.699Z,83.2
2017-06-11T03:40:04.150Z,84.16
2017-06-11T03:40:44.590Z,83.68
2017-06-11T03:41:25.030Z,83.11
2017-06-11T03:42:05.444Z,83.97
2017-06-11T03:42:45.887Z,83.68
2017-06-11T03:43:26.351Z,83.68
2017-06-11T03:44:06.792Z,83.39
2017-06-11T03:44:47.239Z,83.49
2017-06-11T03:45:27.686Z,84.06
2017-06-11T03:46:08.141Z,83.87
2017-06-11T03:46:48.589Z,83.68
2017-06-11T03:47:29.040Z,83.97
2017-06-11T03:48:09.475Z,83.68
2017-06-11T03:48:49.909Z,84.06
2017-06-11T03:49:30.352Z,83.78
2017-06-11T03:50:10.785Z,83.97
2017-06-11T03:50:51.213Z,83.39
2017-06-11T03:51:31.682Z,83.87
2017-06-11T03:52:12.126Z,83.78
2017-06-11T03:52:52.552Z,83.78
2017-06-11T03:53:33.002Z,83.87
2017-06-11T03:54:14.148Z,83.49
2017-06-11T03:54:54.605Z,83.59
2017-06-11T03:55:35.009Z,83.49
2017-06-11T03:56:15.444Z,83.97
2017-06-11T03:56:55.884Z,83.97
2017-06-11T03:57:36.326Z,83.87
2017-06-11T03:58:16.796Z,83.97
2017-06-11T03:58:57.227Z,83.78
2017-06-11T03:59:37.706Z,83.87
2017-06-11T04:00:18.169Z,84.06
2017-06-11T04:00:58.601Z,84.45
2017-06-11T04:01:39.071Z,84.35
2017-06-11T04:02:19.492Z,84.16
2017-06-11T04:02:59.925Z,84.06
2017-06-11T04:03:40.358Z,83.49
2017-06-11T04:04:20.783Z,84.26
2017-06-11T04:05:01.227Z,84.26
2017-06-11T04:05:41.670Z,83.68
2017-06-11T04:06:22.114Z,83.68
2017-06-11T04:07:02.549Z,84.45
2017-06-11T04:07:42.970Z,83.97
2017-06-11T04:08:23.412Z,84.45
2017-06-11T04:09:03.857Z,83.87
2017-06-11T04:09:45.098Z,84.26
2017-06-11T04:10:26.490Z,83.87
2017-06-11T04:11:06.952Z,83.68
2017-06-11T04:11:47.377Z,83.68
2017-06-11T04:12:27.849Z,83.78
2017-06-11T04:13:08.303Z,83.78
2017-06-11T04:13:48.762Z,83.78
2017-06-11T04:14:29.177Z,84.16
2017-06-11T04:15:09.627Z,84.64
2017-06-11T04:15:50.083Z,83.78
2017-06-11T04:16:30.540Z,83.68
2017-06-11T04:17:11.021Z,84.26
2017-06-11T04:17:51.471Z,84.06
2017-06-11T04:18:31.899Z,83.68
2017-06-11T04:19:12.330Z,83.68
2017-06-11T04:21:25.030Z,83.78
2017-06-11T04:22:05.516Z,83.49
2017-06-11T04:22:46.028Z,83.78
2017-06-11T04:23:26.491Z,83.68
2017-06-11T04:24:06.982Z,83.92
2017-06-11T04:24:47.471Z,83.82
2017-06-11T04:25:27.980Z,83.25
2017-06-11T04:26:08.444Z,83.82
2017-06-11T04:26:48.935Z,83.34
2017-06-11T04:27:29.416Z,83.53
2017-06-11T04:28:09.911Z,83.44
2017-06-11T04:28:50.406Z,83.34
2017-06-11T04:29:30.891Z,82.67
2017-06-11T04:30:11.381Z,82.76
2017-06-11T04:30:51.873Z,82.76
2017-06-11T04:31:32.368Z,82.19
2017-06-11T04:32:12.835Z,82.29
2017-06-11T04:32:53.332Z,82.29
2017-06-11T04:33:33.815Z,82.86
2017-06-11T04:34:14.297Z,82.76
2017-06-11T04:34:54.791Z,82.67
2017-06-11T04:35:35.279Z,82.48
2017-06-11T04:36:15.767Z,82.32
2017-06-11T04:36:56.260Z,82.04
2017-06-11T04:37:36.764Z,80.99
2017-06-11T04:38:17.231Z,80.41
2017-06-11T04:38:57.771Z,80.07
2017-06-11T04:39:38.246Z,79.68
2017-06-11T04:40:18.708Z,79.01
2017-06-11T04:40:59.198Z,77.9
2017-06-11T04:41:39.667Z,78
2017-06-11T04:42:20.171Z,77.9
2017-06-11T04:43:00.646Z,77.13
2017-06-11T04:43:41.148Z,76.27
2017-06-11T04:44:21.636Z,76.37
2017-06-11T04:45:02.126Z,76.4
2017-06-11T04:45:42.625Z,75.63
2017-06-11T04:46:23.111Z,74.77
2017-06-11T04:47:03.597Z,74.23
2017-06-11T04:47:44.086Z,74.04
2017-06-11T04:48:24.570Z,73.27
2017-06-11T04:49:05.058Z,72.99
2017-06-11T04:49:45.557Z,72.92
2017-06-11T04:50:26.044Z,72.44
2017-06-11T04:51:06.535Z,71.61
2017-06-11T04:51:47.027Z,71.04
2017-06-11T04:52:27.514Z,69.79
2017-06-11T04:53:08.013Z,69.53
2017-06-11T04:53:48.514Z,68.76
2017-06-11T04:54:29.003Z,67.8
2017-06-11T04:55:09.488Z,67.55
2017-06-11T04:55:49.980Z,67.26
2017-06-11T04:56:30.466Z,66.68
2017-06-11T04:57:10.955Z,66.68
2017-06-11T04:57:51.443Z,66.24
2017-06-11T04:58:31.938Z,65.94
2017-06-11T04:59:12.447Z,65.01
2017-06-11T04:59:52.930Z,65.11
2017-06-11T05:00:33.427Z,64.63
2017-06-11T05:01:13.918Z,64.25
2017-06-11T05:01:54.423Z,63.7
2017-06-11T05:02:34.898Z,63.79
2017-06-11T05:03:15.393Z,63.02
2017-06-11T05:03:55.875Z,63.02
2017-06-11T05:04:36.348Z,62.22
2017-06-11T05:05:16.841Z,63.09
2017-06-11T05:05:57.336Z,63.28
2017-06-11T05:06:37.820Z,63.64
2017-06-11T05:07:18.317Z,63.92
2017-06-11T05:07:58.825Z,64.31
2017-06-11T05:08:39.300Z,64.4
2017-06-11T05:09:19.790Z,64.66
2017-06-11T05:10:00.284Z,65.08
2017-06-11T05:10:40.773Z,64.5
2017-06-11T05:11:21.272Z,63.47
2017-06-11T05:12:01.771Z,63.76
2017-06-11T05:12:42.252Z,63.09
2017-06-11T05:13:22.765Z,63.02
2017-06-11T05:14:03.235Z,63.09
2017-06-11T05:14:43.743Z,62.6
2017-06-11T05:15:24.241Z,62.25
2017-06-11T05:16:04.709Z,61.87
2017-06-11T05:16:45.202Z,61.51
2017-06-11T05:17:25.698Z,60.26
2017-06-11T05:18:06.192Z,60.55
2017-06-11T05:18:47.517Z,60.74
2017-06-11T05:19:27.987Z,60.38
2017-06-11T05:20:08.493Z,60.42
2017-06-11T05:20:48.991Z,60.16
2017-06-11T05:21:29.489Z,59.48
2017-06-11T05:22:09.987Z,59.39
2017-06-11T05:22:50.486Z,59.9
2017-06-11T05:23:30.985Z,59.42
2017-06-11T05:24:11.471Z,59
2017-06-11T05:24:51.963Z,59.13
2017-06-11T05:25:32.460Z,59.42
2017-06-11T05:26:12.954Z,58.65
2017-06-11T05:26:53.456Z,58.45
2017-06-11T05:27:33.950Z,58
2017-06-11T05:29:46.691Z,56.77
2017-06-11T05:30:27.176Z,56.48
2017-06-11T05:31:07.666Z,56.48
2017-06-11T05:31:48.155Z,56.77
2017-06-11T05:32:28.642Z,56.2
2017-06-11T05:33:09.157Z,55.81
2017-06-11T05:33:49.643Z,55.23
2017-06-11T05:34:30.137Z,54.75
2017-06-11T05:35:10.614Z,54.94
2017-06-11T05:35:51.136Z,55.23
2017-06-11T05:36:31.636Z,56.81
2017-06-11T05:37:12.173Z,57.68
2017-06-11T05:37:52.612Z,57.23
2017-06-11T05:38:33.104Z,57.32
2017-06-11T05:39:13.580Z,57.14
2017-06-11T05:39:54.087Z,56.84
2017-06-11T05:40:34.552Z,57.29
2017-06-11T05:41:15.055Z,57.65
2017-06-11T05:41:55.561Z,58.81
2017-06-11T05:42:36.040Z,58.81
2017-06-11T05:43:16.541Z,59.68
2017-06-11T05:43:56.987Z,58.26
2017-06-11T05:44:37.478Z,58
2017-06-11T05:45:17.971Z,56.65
2017-06-11T05:45:58.453Z,56.07
2017-06-11T05:46:39.883Z,56.46
2017-06-11T05:47:20.376Z,56.94
2017-06-11T05:48:00.903Z,56.26
2017-06-11T05:48:41.366Z,56.74
2017-06-11T05:49:21.841Z,56.56
2017-06-11T05:50:02.334Z,56.74
2017-06-11T05:50:42.834Z,56.56
2017-06-11T05:51:23.341Z,56.16
2017-06-11T05:52:03.821Z,56.16
2017-06-11T05:52:44.289Z,55.68
2017-06-11T05:53:24.792Z,56.36
2017-06-11T05:54:05.277Z,56.36
2017-06-11T05:54:45.773Z,55.98
2017-06-11T05:55:26.258Z,56.16
2017-06-11T05:56:06.743Z,56.56
2017-06-11T05:56:47.239Z,56.84
2017-06-11T05:57:27.722Z,57.14
2017-06-11T05:58:08.221Z,56.56
2017-06-11T05:58:48.717Z,56.46
2017-06-11T05:59:29.220Z,56.1
2017-06-11T06:00:09.730Z,55.83
2017-06-11T06:00:50.185Z,54.41
2017-06-11T06:01:30.708Z,53.64
2017-06-11T06:02:11.147Z,53.38
2017-06-11T06:02:51.628Z,53.19
2017-06-11T06:03:32.112Z,52.31
2017-06-11T06:04:12.601Z,52.05
2017-06-11T06:04:53.122Z,53.16
2017-06-11T06:05:33.565Z,52.94
2017-06-11T06:06:14.058Z,53.45
2017-06-11T06:06:54.581Z,53.23
2017-06-11T06:07:35.078Z,53.74
2017-06-11T06:08:15.566Z,53.09
2017-06-11T06:08:56.075Z,52.31
2017-06-11T06:09:36.556Z,51.93
2017-06-11T06:10:17.043Z,52.61
2017-06-11T06:10:57.537Z,51.86
2017-06-11T06:11:38.011Z,51.08
2017-06-11T06:12:18.507Z,51.47
2017-06-11T06:12:58.987Z,51.66
2017-06-11T06:13:39.481Z,51.08
2017-06-11T06:14:19.970Z,50.96
2017-06-11T06:15:00.424Z,51.64
2017-06-11T06:15:40.907Z,51.28
2017-06-11T06:16:21.414Z,51.73
2017-06-11T06:17:01.906Z,51.56
2017-06-11T06:17:42.403Z,50.79
2017-06-11T06:18:22.892Z,49.95
2017-06-11T06:19:03.382Z,48.61
2017-06-11T06:19:43.879Z,49.29
2017-06-11T06:20:24.369Z,49.87
2017-06-11T06:21:04.866Z,49.39
2017-06-11T06:21:45.360Z,48.22
2017-06-11T06:22:25.861Z,48.35
2017-06-11T06:23:06.350Z,47.57
2017-06-11T06:23:46.835Z,47.4
2017-06-11T06:24:27.318Z,46.92
2017-06-11T06:25:07.820Z,47.96
2017-06-11T06:25:48.306Z,48.59
2017-06-11T06:26:28.799Z,47.77
2017-06-11T06:27:09.295Z,47.57
2017-06-11T06:27:49.783Z,47.77
2017-06-11T06:28:30.288Z,47.11
2017-06-11T06:29:10.786Z,46.82
2017-06-11T06:29:51.281Z,46.92
2017-06-11T06:30:31.778Z,47.11
2017-06-11T06:31:12.241Z,47.42
2017-06-11T06:33:30.062Z,45.12
2017-06-11T06:34:10.547Z,45.1
2017-06-11T06:34:51.034Z,45.24
2017-06-11T06:35:31.482Z,43.98
2017-06-11T06:36:11.944Z,43.3
2017-06-11T06:36:52.428Z,44.07
2017-06-11T06:37:32.925Z,43.8
2017-06-11T06:38:13.399Z,43.24
2017-06-11T06:38:53.878Z,43.05
2017-06-11T06:39:34.360Z,42.36
2017-06-11T06:40:14.816Z,42.36
2017-06-11T06:40:55.278Z,42.27
2017-06-11T06:41:35.730Z,42.91
2017-06-11T06:42:17.737Z,42.83
2017-06-11T06:44:30.472Z,42.61
2017-06-11T06:45:10.987Z,44.32
2017-06-11T06:45:51.433Z,45.39
2017-06-11T06:46:31.930Z,45.39
2017-06-11T06:47:12.444Z,45
2017-06-11T06:47:52.933Z,44.34
2017-06-11T06:48:33.429Z,43.49
2017-06-11T06:49:13.922Z,43.22
2017-06-11T06:49:54.398Z,43.02
2017-06-11T06:50:34.891Z,42.81
2017-06-11T06:51:15.374Z,43.49
2017-06-11T06:51:55.872Z,43.51
2017-06-11T06:52:36.364Z,42.91
2017-06-11T06:53:16.855Z,44.64
2017-06-11T06:53:57.351Z,43.68
2017-06-11T06:54:37.839Z,42.74
2017-06-11T06:55:18.333Z,42.85
2017-06-11T06:55:58.828Z,42.49
2017-06-11T06:56:39.309Z,42.29
2017-06-11T06:57:19.806Z,42.39
2017-06-11T06:58:00.292Z,41.9
2017-06-11T06:58:40.813Z,42.1
2017-06-11T06:59:21.303Z,42.58
2017-06-11T07:00:01.780Z,42
2017-06-11T07:00:42.270Z,42.83
2017-06-11T07:01:23.379Z,43.76
2017-06-11T07:02:03.867Z,44.17
2017-06-11T07:02:44.373Z,45.14
2017-06-11T07:03:24.852Z,44.46
2017-06-11T07:04:05.337Z,43.88
2017-06-11T07:04:45.827Z,44.27
2017-06-11T07:05:26.323Z,42.83
2017-06-11T07:06:06.819Z,42.83
2017-06-11T07:06:47.338Z,42.83
2017-06-11T07:07:28.553Z,44.64
2017-06-11T07:08:09.038Z,46.04
2017-06-11T07:08:49.539Z,46.55
2017-06-11T07:09:30.025Z,45.12
2017-06-11T07:10:10.527Z,44.95
2017-06-11T07:10:51.011Z,43.98
2017-06-11T07:11:31.518Z,44.07
2017-06-11T07:12:11.985Z,44.09
2017-06-11T07:12:52.468Z,42.97
2017-06-11T07:13:32.952Z,42.41
2017-06-11T07:14:13.441Z,41.83
2017-06-11T07:14:53.930Z,41.46
2017-06-11T07:15:34.432Z,41.46
2017-06-11T07:16:14.918Z,40.8
2017-06-11T07:16:55.425Z,40.21
2017-06-11T07:17:35.869Z,40.31
2017-06-11T07:18:16.373Z,39.92
2017-06-11T07:18:56.861Z,40.78
2017-06-11T07:19:37.354Z,41.14
2017-06-11T07:20:17.867Z,40.78
2017-06-11T07:20:58.350Z,40.19
2017-06-11T07:21:38.830Z,40
2017-06-11T07:22:19.320Z,39.92
2017-06-11T07:22:59.805Z,38.59
2017-06-11T07:23:40.297Z,37.45
2017-06-11T07:24:20.797Z,37.05
2017-06-11T07:25:01.284Z,36.39
2017-06-11T07:25:41.787Z,36
2017-06-11T07:26:22.280Z,36.94
2017-06-11T07:27:02.765Z,37.7
2017-06-11T07:27:43.256Z,38.56
2017-06-11T07:28:23.749Z,39.88
2017-06-11T07:29:04.240Z,39.06
2017-06-11T07:29:44.738Z,38.69
2017-06-11T07:30:25.226Z,38.12
2017-06-11T07:31:05.726Z,37.83
2017-06-11T07:31:46.219Z,36.27
2017-06-11T07:32:26.718Z,36.19
2017-06-11T07:33:07.208Z,36.19
2017-06-11T07:33:47.703Z,37.73
2017-06-11T07:34:28.185Z,35.94
2017-06-11T07:35:08.677Z,35.24
2017-06-11T07:35:49.172Z,35.04
2017-06-11T07:36:29.664Z,35.63
2017-06-11T07:37:10.148Z,36.58
2017-06-11T07:37:50.653Z,36.68
2017-06-11T07:38:31.134Z,36.66
2017-06-11T07:39:11.618Z,36.88
2017-06-11T07:39:52.128Z,37.23
2017-06-11T07:40:32.614Z,37.62
2017-06-11T07:41:13.105Z,37.52
2017-06-11T07:41:53.609Z,37.07
2017-06-11T07:42:34.096Z,35.74
2017-06-11T07:43:14.579Z,35.66
2017-06-11T07:45:12.216Z,35.36
2017-06-11T07:45:52.717Z,35.17
2017-06-11T07:46:33.201Z,35.46
2017-06-11T07:47:13.681Z,35.64
2017-06-11T07:47:54.172Z,35.45
2017-06-11T07:48:34.656Z,36.04
2017-06-11T07:49:15.158Z,35.36
2017-06-11T07:49:55.647Z,35.28
2017-06-11T07:50:36.137Z,35.11
2017-06-11T07:51:16.634Z,34.99
2017-06-11T07:51:57.135Z,35.85
2017-06-11T07:52:37.614Z,35.75
2017-06-11T07:53:18.119Z,35.74
2017-06-11T07:53:58.617Z,36.88
2017-06-11T07:54:39.104Z,36.88
2017-06-11T07:55:19.645Z,36.78
2017-06-11T07:56:00.155Z,37.05
2017-06-11T07:56:40.648Z,37.05
2017-06-11T07:57:21.138Z,36.31
2017-06-11T07:58:01.643Z,34.8
2017-06-11T07:58:42.127Z,34.47
2017-06-11T07:59:22.606Z,34.21
2017-06-11T08:00:03.117Z,35.75
2017-06-11T08:00:43.597Z,36.8
2017-06-11T08:01:24.090Z,37.07
2017-06-11T08:02:04.578Z,36.9
2017-06-11T08:02:45.065Z,37.11
2017-06-11T08:03:25.557Z,36.72
2017-06-11T08:04:06.056Z,36.07
2017-06-11T08:04:47.195Z,34.54
2017-06-11T08:05:27.690Z,34.03
2017-06-11T08:06:08.167Z,35.17
2017-06-11T08:06:48.651Z,36.04
2017-06-11T08:07:29.788Z,37.93
2017-06-11T08:08:10.279Z,39.84
2017-06-11T08:08:50.768Z,39.31
2017-06-11T08:09:31.288Z,38.16
2017-06-11T08:10:11.755Z,37.73
2017-06-11T08:10:52.242Z,37.85
2017-06-11T08:11:32.744Z,37.19
2017-06-11T08:12:13.237Z,37.83
2017-06-11T08:12:53.720Z,38.9
2017-06-11T08:13:34.205Z,38.81
2017-06-11T08:14:14.709Z,38.92
2017-06-11T08:14:55.196Z,37.65
2017-06-11T08:15:35.690Z,37.19
2017-06-11T08:16:16.197Z,37.09
2017-06-11T08:16:56.695Z,37.67
2017-06-11T08:17:37.173Z,37.75
2017-06-11T08:18:17.659Z,37.38
2017-06-11T08:18:58.147Z,38.26
2017-06-11T08:19:38.638Z,37.02
2017-06-11T08:20:19.145Z,35.4
2017-06-11T08:20:59.634Z,34.55
2017-06-11T08:21:40.133Z,34.65
2017-06-11T08:22:20.601Z,33.69
2017-06-11T08:23:01.057Z,33.41
2017-06-11T08:23:41.532Z,33.39
2017-06-11T08:25:59.315Z,32.42
2017-06-11T08:26:39.808Z,32.53
2017-06-11T08:27:20.311Z,32.42
2017-06-11T08:28:00.797Z,32.03
2017-06-11T08:28:42.010Z,32.43
2017-06-11T08:29:22.506Z,32.51
2017-06-11T08:30:03.055Z,33.36
2017-06-11T08:30:43.494Z,35.19
2017-06-11T08:31:23.998Z,34.64
2017-06-11T08:32:05.363Z,33.29
2017-06-11T08:32:45.846Z,32.15
2017-06-11T08:33:26.331Z,32.27
2017-06-11T08:34:06.815Z,31.79
2017-06-11T08:34:47.300Z,30.82
2017-06-11T08:35:27.786Z,30.8
2017-06-11T08:36:08.268Z,31.47
2017-06-11T08:36:48.779Z,32.14
2017-06-11T08:37:29.259Z,31.87
2017-06-11T08:38:09.774Z,30.62
2017-06-11T08:38:50.256Z,29.94
2017-06-11T08:39:30.741Z,29.45
2017-06-11T08:40:11.240Z,28.59
2017-06-11T08:40:51.805Z,28.03
2017-06-11T08:41:32.235Z,28.2
2017-06-11T08:42:12.822Z,27.84
2017-06-11T08:42:53.215Z,27.16
2017-06-11T08:43:33.709Z,27.08
2017-06-11T08:44:14.204Z,27.19
2017-06-11T08:44:54.711Z,27.74
2017-06-11T08:45:35.216Z,28.68
2017-06-11T08:46:15.756Z,28.59
2017-06-11T08:46:56.204Z,28.03
2017-06-11T08:47:36.708Z,27.37
2017-06-11T08:48:17.205Z,26.03
2017-06-11T08:48:57.706Z,24.87
2017-06-11T08:49:38.202Z,24.4
2017-06-11T08:50:18.691Z,24.57
2017-06-11T08:50:59.191Z,24.48
2017-06-11T08:51:39.688Z,24.76
2017-06-11T08:52:20.198Z,26.19
2017-06-11T08:53:00.699Z,26.97
2017-06-11T08:53:41.195Z,25.73
2017-06-11T08:54:21.686Z,24.77
2017-06-11T08:55:02.174Z,24.97
2017-06-11T08:55:42.673Z,25.35
2017-06-11T08:56:23.160Z,24.69
2017-06-11T08:57:03.663Z,24.3
2017-06-11T08:57:44.151Z,24.02
2017-06-11T08:58:24.718Z,23.93
2017-06-11T08:59:05.148Z,23.83
2017-06-11T08:59:45.656Z,24.39
2017-06-11T09:00:26.152Z,26.14
2017-06-11T09:01:06.677Z,25.19
2017-06-11T09:01:47.136Z,24.58
2017-06-11T09:02:27.644Z,24.29
2017-06-11T09:03:08.146Z,24.39
2017-06-11T09:03:48.655Z,23.44
2017-06-11T09:04:29.138Z,22.56